Time;durP1;ratioP1;P1;durP2;ratioP2;P2;SDS_P1;SDS_P2;PMS_P1;PMS_P2;Temp;Humidity;BMP_temperature;BMP_pressure;BME280_temperature;BME280_humidity;BME280_pressure;Samples;Min_cycle;Max_cycle;Signal;HPM_P1;HPM_P2
2022/04/02 00:01:13;;;;;;;10.45;3.30;;;;;;;-146.64;100.00;53201.31;4999865;28;20076;-82
2022/04/02 00:03:39;;;;;;;10.13;3.37;;;;;;;-146.64;100.00;51492.91;4998456;28;20116;-80
2022/04/02 00:06:04;;;;;;;7.25;3.15;;;;;;;-146.64;100.00;52412.72;4997266;28;20045;-81
2022/04/02 00:08:30;;;;;;;9.07;2.70;;;;;;;-146.64;100.00;52642.72;5029507;28;22187;-82
2022/04/02 00:10:55;;;;;;;8.13;2.58;;;;;;;-146.64;100.00;51476.50;5015221;28;20025;-81
2022/04/02 00:13:21;;;;;;;10.05;2.72;;;;;;;-146.64;100.00;49875.53;4999480;28;20389;-81
2022/04/02 00:15:46;;;;;;;10.45;3.10;;;;;;;-146.64;100.00;52262.84;5000653;28;20022;-81
2022/04/02 00:18:11;;;;;;;6.60;3.17;;;;;;;-146.64;100.00;55041.97;5015082;28;20095;-81
2022/04/02 00:20:37;;;;;;;6.03;3.20;;;;;;;-146.64;100.00;59778.97;5000629;28;20076;-81
2022/04/02 00:25:47;;;;;;;7.40;3.40;;;;;;;-146.64;100.00;70325.94;5016098;28;20127;-81
2022/04/02 00:28:12;;;;;;;5.88;2.85;;;;;;;-146.64;100.00;73231.22;4999795;28;20030;-80
2022/04/02 00:30:38;;;;;;;16.45;2.90;;;;;;;-146.64;100.00;75874.25;5010191;28;20470;-81
2022/04/02 00:33:03;;;;;;;10.20;3.08;;;;;;;-146.64;100.00;77460.91;5004140;28;20030;-80
2022/04/02 00:35:29;;;;;;;9.65;2.65;;;;;;;-146.64;100.00;76931.94;4999472;28;20033;-81
2022/04/02 00:37:54;;;;;;;6.43;2.65;;;;;;;-146.64;100.00;77725.41;5016730;28;20037;-79
2022/04/02 00:40:19;;;;;;;6.45;3.17;;;;;;;-146.64;100.00;78519.03;5000096;28;20109;-81
2022/04/02 00:42:45;;;;;;;5.07;2.53;;;;;;;-146.64;100.00;79577.41;5025170;28;20457;-81
2022/04/02 00:45:11;;;;;;;7.68;3.30;;;;;;;-146.64;100.00;81430.28;5028767;28;20041;-81
2022/04/02 00:47:36;;;;;;;8.35;2.63;;;;;;;-146.64;100.00;83548.88;5000613;28;20067;-81
2022/04/02 00:50:03;;;;;;;7.78;2.65;;;;;;;-146.64;100.00;84873.56;4998638;28;20109;-81
2022/04/02 00:52:28;;;;;;;6.55;2.70;;;;;;;-146.64;100.00;85933.66;4998165;28;20033;-81
2022/04/02 00:54:54;;;;;;;7.07;3.00;;;;;;;-146.64;100.00;86463.78;4998798;28;20072;-80
2022/04/02 00:57:19;;;;;;;10.15;2.88;;;;;;;-146.64;100.00;86728.88;5000430;28;20034;-81
2022/04/02 00:59:45;;;;;;;10.07;3.13;;;;;;;-146.64;100.00;87789.44;5000187;28;20026;-81
2022/04/02 01:02:12;;;;;;;7.47;3.05;;;;;;;-146.64;100.00;87524.28;5019477;28;20132;-83
2022/04/02 01:04:38;;;;;;;8.43;2.47;;;;;;;-146.64;100.00;87789.44;4984811;28;20385;-83
2022/04/02 01:07:04;;;;;;;4.55;2.70;;;;;;;-146.64;100.00;88319.81;4999110;28;20025;-83
2022/04/02 01:09:29;;;;;;;10.25;3.10;;;;;;;-146.64;100.00;89380.81;5002594;28;20026;-84
2022/04/02 01:11:56;;;;;;;10.27;2.90;;;;;;;-146.64;100.00;89380.81;5003893;28;20032;-83
2022/04/02 01:14:22;;;;;;;6.45;2.90;;;;;;;-146.64;100.00;89115.53;5017988;28;20101;-83
2022/04/02 01:16:48;;;;;;;8.63;2.67;;;;;;;-146.64;100.00;86463.78;5001366;28;20095;-82
2022/04/02 01:19:13;;;;;;;5.45;2.72;;;;;;;-146.64;100.00;86994.00;5001683;28;20366;-83
2022/04/02 01:21:39;;;;;;;6.32;2.45;;;;;;;-146.64;100.00;84873.56;5016707;28;20030;-83
2022/04/02 01:24:05;;;;;;;6.60;2.80;;;;;;;-146.64;100.00;81959.81;5018761;28;20476;-83
2022/04/02 01:26:31;;;;;;;8.80;3.03;;;;;;;-146.64;100.00;81959.81;5001553;28;20091;-82
2022/04/02 01:28:58;;;;;;;5.10;2.65;;;;;;;-146.64;100.00;80106.72;5015717;28;20607;-83
2022/04/02 01:31:24;;;;;;;9.80;2.72;;;;;;;-146.64;100.00;79312.78;5001904;28;20124;-83
2022/04/02 01:33:51;;;;;;;6.78;3.10;;;;;;;-146.64;100.00;79577.41;4998933;28;20033;-83
2022/04/02 01:36:18;;;;;;;4.53;2.50;;;;;;;-146.64;100.00;79842.06;5000210;28;20025;-83
2022/04/02 01:38:43;;;;;;;;;;;;;;;-146.64;100.00;78519.03;5026860;28;20034;-83
2022/04/02 01:41:08;;;;;;;7.72;2.80;;;;;;;-146.64;100.00;79048.19;4998603;28;19980;-83
2022/04/02 01:43:34;;;;;;;6.30;3.13;;;;;;;-146.64;100.00;74816.84;5018662;28;20507;-83
2022/04/02 01:46:00;;;;;;;6.80;3.25;;;;;;;-146.64;100.00;73495.47;5016621;28;20044;-83
2022/04/02 01:48:27;;;;;;;7.78;2.67;;;;;;;-146.64;100.00;70325.94;5031993;28;20049;-83
2022/04/02 01:50:54;;;;;;;4.88;2.90;;;;;;;-146.64;100.00;68478.19;5023431;28;20025;-83
2022/04/02 01:53:21;;;;;;;7.78;2.70;;;;;;;-146.64;100.00;63467.22;5006740;28;20026;-83
2022/04/02 01:55:46;;;;;;;5.85;2.70;;;;;;;-146.64;100.00;65576.34;5005511;28;20450;-84
2022/04/02 01:58:12;;;;;;;8.98;3.33;;;;;;;-146.64;100.00;63203.69;5014918;28;20082;-83
2022/04/02 02:00:38;;;;;;;8.40;3.28;;;;;;;-146.64;100.00;58199.34;5021655;28;20099;-83
2022/04/02 02:03:04;;;;;;;5.75;2.95;;;;;;;-146.64;100.00;52850.13;5004352;28;20477;-83
2022/04/02 02:05:29;;;;;;;5.15;2.63;;;;;;;-146.64;100.00;53990.06;5006516;28;20034;-83
2022/04/02 02:07:55;;;;;;;4.50;2.40;;;;;;;-146.64;100.00;47401.50;5007622;28;20053;-83
2022/04/02 02:10:20;;;;;;;4.53;2.70;;;;;;;-146.64;100.00;44086.75;5022476;28;20076;-83
2022/04/02 02:12:46;;;;;;;6.03;3.15;;;;;;;-146.64;100.00;42650.59;5007404;28;20100;-85
2022/04/02 02:15:22;;;;;;;7.05;2.85;;;;;;;-146.64;100.00;41634.75;5004372;28;20029;-83
2022/04/02 02:17:48;;;;;;;5.95;2.92;;;;;;;-146.64;100.00;40776.81;5026340;28;20144;-83
2022/04/02 02:20:15;;;;;;;6.80;2.78;;;;;;;-146.64;100.00;40533.19;4986941;28;20042;-83
2022/04/02 02:22:42;;;;;;;7.38;2.72;;;;;;;-146.64;100.00;40479.97;5019965;28;20037;-83
2022/04/02 02:25:08;;;;;;;;;;;;;;;-146.64;100.00;40475.88;5021473;28;20045;-83
2022/04/02 02:27:34;;;;;;;9.88;2.60;;;;;;;-146.64;100.00;40492.25;5027823;28;19924;-84
2022/04/02 02:30:00;;;;;;;4.67;2.67;;;;;;;-146.64;100.00;40226.13;5006455;28;20037;-83
2022/04/02 02:32:26;;;;;;;3.15;2.25;;;;;;;-146.64;100.00;40179.03;5006619;28;20481;-83
2022/04/02 02:37:37;;;;;;;10.32;2.42;;;;;;;-146.64;100.00;40293.66;5031592;28;20515;-83
2022/04/02 02:40:03;;;;;;;7.90;1.90;;;;;;;-146.64;100.00;40168.81;5005099;28;20120;-83
2022/04/02 02:42:30;;;;;;;4.40;2.55;;;;;;;-146.64;100.00;39998.91;5009204;28;20087;-83
2022/04/02 02:44:55;;;;;;;3.78;2.38;;;;;;;-146.64;100.00;40086.91;4995688;28;20038;-84
2022/04/02 02:47:29;;;;;;;5.97;2.58;;;;;;;-146.64;100.00;39960.00;5021447;28;20105;-84
2022/04/02 02:49:55;;;;;;;4.97;2.42;;;;;;;-146.64;100.00;40086.91;5017174;28;20049;-83
2022/04/02 02:52:20;;;;;;;6.40;2.28;;;;;;;-146.64;100.00;39939.53;5006030;28;20033;-84
2022/04/02 02:54:46;;;;;;;6.07;2.40;;;;;;;-146.64;100.00;40050.06;5002731;28;20045;-84
2022/04/02 02:57:11;;;;;;;2.72;2.38;;;;;;;-146.64;100.00;39998.91;5006140;28;20061;-84
2022/04/02 02:59:37;;;;;;;3.70;2.60;;;;;;;-146.64;100.00;39939.53;5020327;28;20045;-83
2022/04/02 03:02:03;;;;;;;5.45;2.10;;;;;;;-146.64;100.00;39863.81;5022798;28;20393;-84
2022/04/02 03:04:30;;;;;;;9.75;3.08;;;;;;;-146.64;100.00;39978.44;5021901;28;20150;-84
2022/04/02 03:06:56;;;;;;;7.28;2.40;;;;;;;-146.64;100.00;39972.28;5021165;28;20045;-83
2022/04/02 03:09:21;;;;;;;4.32;2.90;;;;;;;-146.64;100.00;39970.25;5006576;28;20026;-84
2022/04/02 03:11:46;;;;;;;6.03;2.30;;;;;;;-146.64;100.00;40009.13;5030708;28;20045;-83
2022/04/02 03:14:12;;;;;;;7.18;2.30;;;;;;;-146.64;100.00;39872.00;5032132;28;20037;-83
2022/04/02 03:16:38;;;;;;;4.60;2.50;;;;;;;-146.64;100.00;39927.25;5003988;28;20045;-84
2022/04/02 03:19:06;;;;;;;5.55;2.35;;;;;;;-146.64;100.00;39919.06;5004646;28;20030;-84
2022/04/02 03:21:32;;;;;;;6.65;2.67;;;;;;;-146.64;100.00;39906.78;5026329;28;20439;-84
2022/04/02 03:23:59;;;;;;;4.30;2.20;;;;;;;-146.64;100.00;39853.56;5002113;28;20125;-84
2022/04/02 03:26:25;;;;;;;3.38;2.28;;;;;;;-146.64;100.00;39874.03;4995322;28;20045;-84
2022/04/02 03:28:51;;;;;;;3.28;2.10;;;;;;;-146.64;100.00;39722.56;5004424;28;20108;-83
2022/04/02 03:31:18;;;;;;;6.95;2.65;;;;;;;-146.64;100.00;39923.16;4998498;28;20065;-84
2022/04/02 03:33:43;;;;;;;4.45;2.67;;;;;;;-146.64;100.00;39902.69;5005173;28;20057;-83
2022/04/02 03:36:10;;;;;;;6.88;2.45;;;;;;;-146.64;100.00;39902.69;5005394;28;20220;-84
2022/04/02 03:38:37;;;;;;;2.33;2.13;;;;;;;-146.64;100.00;39878.13;5021317;28;20037;-83
2022/04/02 03:41:04;;;;;;;4.95;2.25;;;;;;;-146.64;100.00;39935.44;5020842;28;20121;-84
2022/04/02 03:43:29;;;;;;;5.75;2.50;;;;;;;-146.64;100.00;39947.72;5016173;28;20034;-84
2022/04/02 03:47:07;;;;;;;4.22;2.33;;;;;;;-146.64;100.00;39982.53;5020882;28;20026;-84
2022/04/02 03:48:40;;;;;;;16.38;5.55;;;;;;;-146.64;100.00;40041.88;5020015;28;20037;-84
2022/04/02 03:51:05;;;;;;;4.28;2.38;;;;;;;-146.64;100.00;39910.88;5017200;28;20034;-83
2022/04/02 03:53:34;;;;;;;7.47;2.58;;;;;;;-146.64;100.00;39955.91;4999760;28;20070;-84
2022/04/02 03:56:00;;;;;;;3.85;2.40;;;;;;;-146.64;100.00;39951.81;5025674;28;20487;-83
2022/04/02 03:58:27;;;;;;;2.85;1.88;;;;;;;-146.64;100.00;39951.81;5005759;28;20093;-84
2022/04/02 04:00:53;;;;;;;3.15;2.33;;;;;;;-146.64;100.00;39978.44;5000996;28;20061;-84
2022/04/02 04:03:20;;;;;;;3.13;2.33;;;;;;;-146.64;100.00;39984.56;4995619;28;20090;-84
2022/04/02 04:05:46;;;;;;;3.13;2.22;;;;;;;-146.64;100.00;39996.84;5018657;28;20081;-84
2022/04/02 04:08:12;;;;;;;5.20;2.35;;;;;;;-146.64;100.00;39949.78;5019527;28;20029;-82
2022/04/02 04:10:38;;;;;;;3.83;2.35;;;;;;;-146.64;100.00;39947.72;5021464;28;20030;-83
2022/04/02 04:13:05;;;;;;;8.10;3.30;;;;;;;-146.64;100.00;39968.19;4999484;28;20026;-83
2022/04/02 04:15:30;;;;;;;8.38;3.20;;;;;;;-146.64;100.00;39894.50;5016832;28;20080;-82
2022/04/02 04:17:57;;;;;;;7.53;2.92;;;;;;;-146.64;100.00;39919.06;5002201;28;20030;-82
2022/04/02 04:20:22;;;;;;;7.10;3.05;;;;;;;-146.64;100.00;39980.47;5016851;28;20044;-83
2022/04/02 04:22:48;;;;;;;4.38;2.95;;;;;;;-146.64;100.00;40017.31;5018829;28;20034;-83
2022/04/02 04:25:15;;;;;;;6.13;2.80;;;;;;;-146.64;100.00;40084.88;5019316;28;20141;-83
2022/04/02 04:27:44;;;;;;;4.32;2.85;;;;;;;-146.64;100.00;40185.19;5000612;28;20033;-83
2022/04/02 04:30:10;;;;;;;7.60;2.55;;;;;;;-146.64;100.00;40387.84;5017152;28;20026;-83
2022/04/02 04:32:36;;;;;;;4.68;2.75;;;;;;;-146.64;100.00;40692.88;5002994;28;20054;-82
2022/04/02 04:35:02;;;;;;;10.13;2.95;;;;;;;-146.64;100.00;41143.31;5000955;28;20093;-82
2022/04/02 04:37:28;;;;;;;6.10;2.80;;;;;;;-146.64;100.00;42073.00;5003488;28;20040;-82
2022/04/02 04:39:53;;;;;;;3.60;2.50;;;;;;;-146.64;100.00;42689.50;5018536;28;20030;-82
2022/04/02 04:42:20;;;;;;;6.07;3.38;;;;;;;-146.64;100.00;43674.91;5005025;28;20059;-83
2022/04/02 04:44:45;;;;;;;4.35;3.13;;;;;;;-146.64;100.00;45996.94;5015077;28;20037;-83
2022/04/02 04:47:11;;;;;;;11.35;2.97;;;;;;;-146.64;100.00;48985.03;5008723;28;20370;-83
2022/04/02 04:49:40;;;;;;;7.43;3.13;;;;;;;-146.64;100.00;49169.69;5018219;28;20032;-83
2022/04/02 04:52:05;;;;;;;14.13;2.88;;;;;;;-146.64;100.00;48628.06;5001218;28;20172;-82
2022/04/02 04:54:31;;;;;;;6.57;3.45;;;;;;;-146.64;100.00;48902.97;5013692;28;20482;-83
2022/04/02 04:56:56;;;;;;;6.32;3.20;;;;;;;-146.64;100.00;46614.06;5003791;28;20512;-83
2022/04/02 04:59:22;;;;;;;8.77;3.47;;;;;;;-146.64;100.00;44551.91;5018825;28;20017;-83
2022/04/02 05:01:47;;;;;;;6.75;2.80;;;;;;;-146.64;100.00;44494.53;5021319;28;20034;-83
2022/04/02 05:04:13;;;;;;;4.13;3.03;;;;;;;-146.64;100.00;44318.28;5018226;28;20072;-83
2022/04/02 05:06:39;;;;;;;11.68;3.65;;;;;;;-146.64;100.00;43080.78;5004255;28;20080;-83
2022/04/02 05:09:05;;;;;;;6.40;3.17;;;;;;;-146.64;100.00;41659.31;5002959;28;20041;-83
2022/04/02 05:11:31;;;;;;;8.00;3.50;;;;;;;-146.64;100.00;41323.50;5020181;28;20077;-83
2022/04/02 05:13:56;;;;;;;7.03;3.00;;;;;;;-146.64;100.00;41098.25;5002021;28;20038;-83
2022/04/02 05:16:23;;;;;;;7.15;3.10;;;;;;;-146.64;100.00;41040.94;5022024;28;20025;-83
2022/04/02 05:18:48;;;;;;;9.82;3.75;;;;;;;-146.64;100.00;41163.78;4991889;28;20054;-83
2022/04/02 05:21:14;;;;;;;3.97;2.47;;;;;;;-146.64;100.00;41118.75;4986797;28;20034;-82
2022/04/02 05:23:40;;;;;;;8.65;3.13;;;;;;;-146.64;100.00;40934.47;5001576;28;20048;-83
2022/04/02 05:26:05;;;;;;;3.38;2.13;;;;;;;-146.64;100.00;40961.09;5019679;28;20141;-83
2022/04/02 05:28:31;;;;;;;4.97;3.50;;;;;;;-146.64;100.00;41112.59;4999854;28;20034;-84
2022/04/02 05:30:56;;;;;;;4.63;3.28;;;;;;;-146.64;100.00;41106.47;5019819;28;20046;-84
2022/04/02 05:33:21;;;;;;;6.68;3.38;;;;;;;-146.64;100.00;41028.66;5008326;28;20033;-83
2022/04/02 05:35:47;;;;;;;7.93;2.70;;;;;;;-146.64;100.00;41278.44;5006724;28;20042;-83
2022/04/02 05:38:14;;;;;;;3.03;2.30;;;;;;;-146.64;100.00;41042.97;5032642;28;20180;-84
2022/04/02 05:40:40;;;;;;;7.30;3.03;;;;;;;-146.64;100.00;40797.28;4986024;28;20049;-84
2022/04/02 05:43:06;;;;;;;5.57;2.88;;;;;;;-146.64;100.00;41008.19;5003867;28;20038;-83
2022/04/02 05:45:32;;;;;;;6.13;3.58;;;;;;;-146.64;100.00;41114.66;5000722;28;20390;-83
2022/04/02 05:47:58;;;;;;;6.78;3.25;;;;;;;-146.64;100.00;41556.94;5021120;28;20044;-83
2022/04/02 05:50:25;;;;;;;5.88;3.58;;;;;;;-146.64;100.00;41638.84;5000331;28;20103;-83
2022/04/02 05:52:51;;;;;;;8.73;3.20;;;;;;;-146.64;100.00;41823.16;5009675;28;20027;-85
2022/04/02 05:55:17;;;;;;;5.20;3.42;;;;;;;-146.64;100.00;42396.63;5017454;28;20030;-83
2022/04/02 05:57:42;;;;;;;6.22;3.75;;;;;;;-146.64;100.00;42908.69;5002796;28;20026;-82
2022/04/02 06:00:10;;;;;;;5.65;3.83;;;;;;;-146.64;100.00;43760.94;5002849;28;20019;-82
2022/04/02 06:02:37;;;;;;;11.32;3.70;;;;;;;-146.64;100.00;44773.25;4988710;28;20034;-83
2022/04/02 06:05:03;;;;;;;;;;;;;;;-146.64;100.00;44736.34;5017229;28;20048;-82
2022/04/02 06:07:28;;;;;;;6.72;3.70;;;;;;;-146.64;100.00;44135.91;5018021;28;20356;-83
2022/04/02 06:09:53;;;;;;;11.15;4.03;;;;;;;-146.64;100.00;44379.78;5016857;28;20053;-84
2022/04/02 06:12:19;;;;;;;13.50;4.15;;;;;;;-146.64;100.00;43789.63;5034768;28;20044;-84
2022/04/02 06:14:44;;;;;;;7.47;4.05;;;;;;;-146.64;100.00;43252.84;5002081;28;20033;-83
2022/04/02 06:17:11;;;;;;;6.82;3.67;;;;;;;-146.64;100.00;42505.16;5012876;28;20027;-84
2022/04/02 06:19:36;;;;;;;10.27;4.47;;;;;;;-146.64;100.00;42394.56;5003429;28;20034;-84
2022/04/02 06:22:06;;;;;;;5.20;3.75;;;;;;;-146.64;100.00;41802.69;4998569;28;20116;-84
2022/04/02 06:24:33;;;;;;;8.85;3.95;;;;;;;-146.64;100.00;41739.19;5008993;28;20050;-84
2022/04/02 06:26:59;;;;;;;6.85;3.55;;;;;;;-146.64;100.00;41266.16;5002158;28;20036;-84
2022/04/02 06:29:25;;;;;;;6.28;4.00;;;;;;;-146.64;100.00;41094.16;5000134;28;20105;-84
2022/04/02 06:31:51;;;;;;;5.50;3.55;;;;;;;-146.64;100.00;40713.34;5005401;28;20048;-85
2022/04/02 06:34:16;;;;;;;5.75;3.58;;;;;;;-146.64;100.00;40656.03;5020407;28;20046;-83
2022/04/02 06:36:41;;;;;;;7.68;3.40;;;;;;;-146.64;100.00;40414.44;5022494;28;20120;-82
2022/04/02 06:39:07;;;;;;;5.85;3.88;;;;;;;-146.64;100.00;40316.19;5005281;28;20038;-84
2022/04/02 06:41:32;;;;;;;9.20;4.03;;;;;;;-146.64;100.00;40213.84;5035677;28;20041;-84
2022/04/02 06:43:57;;;;;;;7.20;3.88;;;;;;;-146.64;100.00;40217.94;5020151;28;20030;-83
2022/04/02 06:46:23;;;;;;;7.18;3.63;;;;;;;-146.64;100.00;40144.22;5016540;28;20107;-84
2022/04/02 06:48:48;;;;;;;7.97;3.80;;;;;;;-146.64;100.00;40148.31;5016999;28;20029;-83
2022/04/02 06:51:15;;;;;;;8.30;3.80;;;;;;;-146.64;100.00;39986.63;5002641;28;20025;-84
2022/04/02 06:53:40;;;;;;;12.98;4.18;;;;;;;-146.64;100.00;39970.25;4999614;28;20030;-83
2022/04/02 06:56:05;;;;;;;6.50;3.63;;;;;;;-146.64;100.00;39992.75;5018968;28;20068;-82
2022/04/02 06:58:34;;;;;;;7.05;4.13;;;;;;;-146.64;100.00;39896.56;5022239;28;20029;-83
2022/04/02 07:01:00;;;;;;;10.50;4.53;;;;;;;-146.64;100.00;39931.34;5017306;28;20088;-83
2022/04/02 07:03:25;;;;;;;10.00;4.57;;;;;;;-146.64;100.00;39824.91;5003520;28;20029;-84
2022/04/02 07:05:50;;;;;;;6.43;3.55;;;;;;;-146.64;100.00;39814.69;5017394;28;20026;-84
2022/04/02 07:08:16;;;;;;;5.03;3.10;;;;;;;-146.64;100.00;39755.31;5005283;28;20041;-84
2022/04/02 07:10:41;;;;;;;5.20;3.20;;;;;;;-146.64;100.00;39622.28;5014795;28;20022;-83
2022/04/02 07:13:10;;;;;;;4.20;2.70;;;;;;;-146.64;100.00;39673.44;5021450;28;20049;-84
2022/04/02 07:15:38;;;;;;;5.25;3.00;;;;;;;-146.64;100.00;39632.50;5005793;28;20042;-83
2022/04/02 07:18:08;;;;;;;7.68;3.60;;;;;;;-146.64;100.00;39620.22;5011850;28;20120;-84
2022/04/02 07:20:35;;;;;;;4.57;3.17;;;;;;;-146.64;100.00;39560.88;5016102;28;20030;-84
2022/04/02 07:23:07;;;;;;;6.43;3.33;;;;;;;-146.64;100.00;39487.19;5007615;28;20022;-84
2022/04/02 07:25:38;;;;;;;6.90;3.00;;;;;;;-146.64;100.00;39436.03;5030969;28;20052;-83
2022/04/02 07:28:04;;;;;;;7.90;2.80;;;;;;;-146.64;100.00;39399.19;5020195;28;20036;-84
2022/04/02 07:30:32;;;;;;;8.82;3.30;;;;;;;-146.64;100.00;39337.78;5012659;28;20017;-85
2022/04/02 07:32:57;;;;;;;9.20;2.72;;;;;;;-146.64;100.00;39374.63;5011878;28;20041;-84
2022/04/02 07:35:22;;;;;;;8.32;3.90;;;;;;;-146.64;100.00;39368.50;5025725;28;20033;-84
2022/04/02 07:38:01;;;;;;;6.40;2.60;;;;;;;-146.64;100.00;39341.88;5004147;28;20022;-84
2022/04/02 07:40:32;;;;;;;7.82;3.03;;;;;;;-146.64;100.00;39317.31;5000107;28;20030;-84
2022/04/02 07:43:04;;;;;;;5.55;2.88;;;;;;;-146.64;100.00;39311.19;5037109;28;20031;-85
2022/04/02 07:45:38;;;;;;;7.20;3.35;;;;;;;-146.64;100.00;39366.44;5026912;28;20108;-84
2022/04/02 07:48:07;;;;;;;5.20;3.08;;;;;;;-146.64;100.00;39354.16;5021384;28;20037;-84
2022/04/02 07:50:33;;;;;;;10.70;2.90;;;;;;;-146.64;100.00;39370.53;5000174;28;20030;-85
2022/04/02 07:52:59;;;;;;;4.97;3.05;;;;;;;-146.64;100.00;39366.44;5033373;28;20022;-85
2022/04/02 07:55:28;;;;;;;7.05;2.80;;;;;;;-146.64;100.00;39391.00;5012865;28;20022;-84
2022/04/02 07:58:02;;;;;;;7.00;2.83;;;;;;;-146.64;100.00;39407.38;5017480;28;20107;-84
2022/04/02 08:00:28;;;;;;;8.20;2.55;;;;;;;-146.64;100.00;39354.16;5020870;28;20035;-85
2022/04/02 08:02:54;;;;;;;4.38;2.65;;;;;;;-146.64;100.00;39262.06;5024588;28;20025;-85
2022/04/02 08:05:20;;;;;;;5.35;2.80;;;;;;;-146.64;100.00;39431.94;5015833;28;20041;-84
2022/04/02 08:07:55;;;;;;;11.63;2.70;;;;;;;-146.64;100.00;39350.06;5005302;28;20049;-84
2022/04/02 08:10:23;;;;;;;6.07;2.65;;;;;;;-146.64;100.00;39407.38;5005037;28;20029;-85
2022/04/02 08:12:49;;;;;;;6.97;2.90;;;;;;;-146.64;100.00;39360.31;5020028;28;20099;-85
2022/04/02 08:15:16;;;;;;;8.07;2.57;;;;;;;-146.64;100.00;39337.78;4999895;28;20050;-86
2022/04/02 08:17:43;;;;;;;3.30;2.28;;;;;;;-146.64;99.06;39384.84;5028445;28;20057;-85
2022/04/02 08:20:10;;;;;;;6.13;2.72;;;;;;;-146.64;100.00;39343.94;5014826;28;20034;-85
2022/04/02 08:22:36;;;;;;;7.60;2.55;;;;;;;-146.64;95.66;39321.41;5013167;28;20038;-85
2022/04/02 08:25:01;;;;;;;4.45;2.50;;;;;;;-146.64;95.59;39231.38;5015161;28;20061;-86
2022/04/02 08:27:39;;;;;;;6.25;2.58;;;;;;;-146.64;94.25;39329.59;5022526;28;20033;-86
2022/04/02 08:30:05;;;;;;;6.72;2.95;;;;;;;-146.64;92.89;39300.94;5014325;28;20026;-85
2022/04/02 08:32:55;;;;;;;8.57;2.45;;;;;;;-146.64;89.70;39247.75;5005710;28;20034;-86
2022/04/02 08:35:29;;;;;;;6.68;2.63;;;;;;;-146.64;88.85;39290.72;5009610;28;20045;-85
2022/04/02 08:38:13;;;;;;;4.03;2.25;;;;;;;-146.64;82.63;39219.09;5014850;28;20594;-86
2022/04/02 08:41:19;;;;;;;5.85;2.38;;;;;;;-146.64;81.78;39206.81;5012857;28;20040;-85
2022/04/02 08:44:15;;;;;;;3.33;2.00;;;;;;;-146.64;74.71;39165.88;5023814;28;20107;-85
2022/04/02 08:47:08;;;;;;;8.43;2.60;;;;;;;-146.64;79.63;39184.28;5018084;28;20026;-86
2022/04/02 08:49:41;;;;;;;4.90;2.47;;;;;;;-146.64;78.67;39174.06;5018587;28;20025;-85
2022/04/02 08:52:15;;;;;;;4.70;2.20;;;;;;;-146.64;76.66;39161.78;5019410;28;20022;-84
2022/04/02 08:54:54;;;;;;;9.65;3.45;;;;;;;-146.64;77.12;39239.56;5012835;28;20026;-81
2022/04/02 08:57:29;;;;;;;6.32;2.42;;;;;;;-146.64;76.25;39153.59;5007428;28;20072;-81
2022/04/02 09:00:05;;;;;;;5.60;2.50;;;;;;;-146.64;79.28;39219.09;5024782;28;20023;-81
2022/04/02 09:02:55;;;;;;;5.10;2.40;;;;;;;-146.64;76.00;39137.22;5009930;28;20030;-82
2022/04/02 09:06:01;;;;;;;2.97;1.83;;;;;;;-146.64;73.48;39086.06;5014366;28;20574;-82
2022/04/02 09:08:41;;;;;;;4.03;2.22;;;;;;;-146.64;74.70;39069.69;4999472;28;20075;-81
2022/04/02 09:11:20;;;;;;;5.85;2.60;;;;;;;-146.64;75.71;39106.53;5015570;28;20029;-81
2022/04/02 09:14:11;;;;;;;7.07;2.85;;;;;;;-146.64;69.65;39167.91;4997252;28;20029;-81
2022/04/02 09:17:03;;;;;;;4.20;2.00;;;;;;;-146.64;70.07;39051.28;5014705;28;20029;-81
2022/04/02 09:19:54;;;;;;;5.35;2.38;;;;;;;-146.64;64.75;38985.78;5013185;28;20037;-81
2022/04/02 09:22:49;;;;;;;3.53;2.10;;;;;;;-146.64;57.31;39030.81;4993921;28;20037;-81
2022/04/02 09:25:49;;;;;;;5.43;2.20;;;;;;;-146.64;60.43;39086.06;5012509;28;20046;-81
2022/04/02 09:28:27;;;;;;;2.78;2.10;;;;;;;-146.64;60.36;38948.94;5009601;28;20453;-80
2022/04/02 09:31:14;;;;;;;4.10;2.13;;;;;;;-146.64;59.89;39178.16;5011095;28;20497;-80
2022/04/02 09:34:17;;;;;;;5.65;2.22;;;;;;;-146.64;55.51;38957.13;5008143;28;20105;-81
2022/04/02 09:36:59;;;;;;;4.85;1.92;;;;;;;-146.64;57.85;39018.53;5008340;28;20046;-81
2022/04/02 09:39:46;;;;;;;3.85;2.13;;;;;;;-146.64;60.27;38965.31;5011944;28;20380;-80
2022/04/02 09:42:38;;;;;;;3.92;2.20;;;;;;;-146.64;56.25;39039.00;5029477;28;20032;-80
2022/04/02 09:45:09;;;;;;;2.50;1.83;;;;;;;-146.64;56.33;38975.56;4995124;28;20109;-80
2022/04/02 09:47:49;;;;;;;4.63;2.28;;;;;;;-146.64;53.34;38940.75;5012590;28;20037;-80
2022/04/02 09:50:26;;;;;;;5.82;1.80;;;;;;;-146.64;51.98;38961.22;5015794;28;20066;-80
2022/04/02 09:53:08;;;;;;;7.93;1.83;;;;;;;-146.64;49.43;38895.75;5011886;28;20090;-79
2022/04/02 09:55:48;;;;;;;2.83;1.60;;;;;;;-146.64;45.79;38928.50;5009154;28;20105;-80
2022/04/02 09:58:38;;;;;;;10.90;6.97;;;;;;;-146.64;47.29;38932.56;5015993;28;20045;-80
2022/04/02 10:01:05;;;;;;;5.53;2.25;;;;;;;-146.64;47.16;38918.25;5030414;28;20113;-80
2022/04/02 10:03:32;;;;;;;3.10;1.90;;;;;;;-146.64;43.76;39055.38;5014838;28;20022;-79
2022/04/02 10:05:58;;;;;;;10.23;1.90;;;;;;;-146.64;42.47;38875.28;5013083;28;20061;-79
2022/04/02 10:08:39;;;;;;;2.33;1.75;;;;;;;-146.64;44.76;38873.22;5009757;28;20063;-80
2022/04/02 10:11:06;;;;;;;4.38;2.60;;;;;;;-146.64;43.70;38903.94;5012362;28;20022;-80
2022/04/02 10:13:33;;;;;;;3.03;1.85;;;;;;;-146.64;43.72;39100.38;5014145;28;20121;-79
2022/04/02 10:15:59;;;;;;;4.40;2.03;;;;;;;-146.64;43.84;39147.47;4998710;28;20029;-80
2022/04/02 10:18:26;;;;;;;5.72;2.50;;;;;;;-146.64;46.63;39186.34;5019504;28;20025;-80
2022/04/02 10:20:53;;;;;;;2.72;1.80;;;;;;;-146.64;45.44;38938.72;4998930;28;20048;-80
2022/04/02 10:23:23;;;;;;;4.33;1.93;;;;;;;-146.64;44.24;38920.31;4991346;28;20394;-80
2022/04/02 10:26:05;;;;;;;4.25;2.17;;;;;;;-146.64;45.62;38953.03;5010869;28;20413;-79
2022/04/02 10:28:33;;;;;;;3.58;1.90;;;;;;;-146.64;44.76;39096.28;5014818;28;20105;-80
2022/04/02 10:31:00;;;;;;;3.75;2.28;;;;;;;-146.64;43.63;38858.91;5009908;28;20014;-81
2022/04/02 10:33:30;;;;;;;3.95;2.22;;;;;;;-146.64;41.66;38748.41;5016104;28;20021;-80
2022/04/02 10:35:56;;;;;;;13.27;7.65;;;;;;;-146.64;41.65;38858.91;4999806;28;20042;-80
2022/04/02 10:38:33;;;;;;;7.00;2.15;;;;;;;-146.64;41.18;38993.97;4982075;28;20083;-79
2022/04/02 10:41:22;;;;;;;3.95;2.05;;;;;;;-146.64;41.99;38867.09;5011393;28;20037;-79
2022/04/02 10:43:59;;;;;;;2.60;1.85;;;;;;;-146.64;42.02;38891.66;4998544;28;20539;-80
2022/04/02 10:46:25;;;;;;;3.08;1.98;;;;;;;-146.64;43.19;38875.28;4993319;28;20495;-80
2022/04/02 10:49:05;;;;;;;2.80;2.00;;;;;;;-146.64;41.66;39102.44;5014464;28;20049;-79
2022/04/02 10:51:32;;;;;;;2.75;1.88;;;;;;;-146.64;41.78;39112.66;4983120;28;20283;-80
2022/04/02 10:54:01;;;;;;;;;;;;;;;-146.64;42.46;39120.84;5001044;28;20037;-80
2022/04/02 10:56:44;;;;;;;2.67;1.70;;;;;;;-146.64;42.72;39108.56;4993681;28;20073;-79
2022/04/02 10:59:11;;;;;;;5.18;1.98;;;;;;;-146.64;44.53;39110.63;4995911;28;20041;-80
2022/04/02 11:01:44;;;;;;;3.80;1.90;;;;;;;-146.64;46.16;39084.00;4995592;28;20503;-80
2022/04/02 11:04:23;;;;;;;2.00;1.70;;;;;;;-146.64;44.84;39063.56;5000977;28;20030;-79
2022/04/02 11:06:49;;;;;;;3.85;2.03;;;;;;;-146.64;43.70;38854.81;5010823;28;20022;-80
2022/04/02 11:09:28;;;;;;;5.43;2.17;;;;;;;-146.64;41.77;38838.44;5012651;28;20017;-80
2022/04/02 11:11:56;;;;;;;3.90;2.22;;;;;;;-146.64;42.21;38836.41;5013598;28;20055;-80
2022/04/02 11:14:22;;;;;;;2.55;1.95;;;;;;;-146.64;44.55;38793.44;5019826;28;20484;-80
2022/04/02 11:16:47;;;;;;;6.80;2.50;;;;;;;-146.64;44.65;39116.75;5015410;28;20258;-80
2022/04/02 11:20:13;;;;;;;3.35;1.70;;;;;;;-146.64;44.37;39129.03;5000468;28;20072;-80
2022/04/02 11:22:09;;;;;;;6.60;2.22;;;;;;;-146.64;46.19;39174.06;5008672;28;20057;-80
2022/04/02 11:24:44;;;;;;;7.68;2.10;;;;;;;-146.64;47.45;39169.97;5014223;28;20042;-80
2022/04/02 11:27:18;;;;;;;2.28;1.85;;;;;;;-146.64;47.78;39106.53;5018062;28;20033;-80